Terminal Aerodrome Forecast
Issued by NWS

Home | Current Version | Previous Version | Text Only | Print | Product List | Glossary On
Versions: 1 2 3 4 5 6 7 8 9 10 11 12 13 14 15
000
FTUS43 KSGF 271120
TAFBBG
TAF
KBBG 271120Z 2712/2812 VRB04KT P6SM OVC150
     FM271400 24005KT P6SM -SHRA VCTS SCT050CB OVC100
     FM271900 24012G18KT P6SM VCTS BKN050CB
      TEMPO 2800/2804 5SM -TSRA BR SCT035 OVC050CB
     FM280600 VRB04KT P6SM OVC035=

USA.gov is the U.S. government's official web portal to all federal, state and local government web resources and services.